createdAt,value
2018-10-19T00:00:33.223Z,35.60
2018-10-19T00:01:33.212Z,35.10
2018-10-19T00:02:33.204Z,34.00
2018-10-19T00:03:33.206Z,32.70
2018-10-19T00:04:33.178Z,35.40
2018-10-19T00:05:33.166Z,34.50
2018-10-19T00:06:33.161Z,33.40
2018-10-19T00:07:33.153Z,33.30
2018-10-19T00:08:33.133Z,33.20
2018-10-19T00:09:33.136Z,31.60
2018-10-19T00:10:33.113Z,32.30
2018-10-19T00:11:33.100Z,31.40
2018-10-19T00:12:33.112Z,30.50
2018-10-19T00:13:33.078Z,30.60
2018-10-19T00:14:33.068Z,30.50
2018-10-19T00:15:33.066Z,30.50
2018-10-19T00:16:33.044Z,30.40
2018-10-19T00:17:33.033Z,29.50
2018-10-19T00:18:33.027Z,28.90
2018-10-19T00:19:33.013Z,29.10
2018-10-19T00:20:33.002Z,28.90
2018-10-19T00:21:33.002Z,29.10
2018-10-19T00:22:40.011Z,29.10
2018-10-19T00:23:32.970Z,29.00
2018-10-19T00:24:32.966Z,28.00
2018-10-19T00:25:32.945Z,28.80
2018-10-19T00:26:32.932Z,28.40
2018-10-19T00:27:32.933Z,28.00
2018-10-19T00:28:32.924Z,28.00
2018-10-19T00:29:32.898Z,27.50
2018-10-19T00:30:32.888Z,26.80
2018-10-19T00:31:32.878Z,29.30
2018-10-19T00:32:32.877Z,27.90
2018-10-19T00:33:32.872Z,28.80
2018-10-19T00:34:32.862Z,26.90
2018-10-19T00:35:32.840Z,28.50
2018-10-19T00:36:32.841Z,29.20
2018-10-19T00:37:32.812Z,29.30
2018-10-19T00:38:32.799Z,28.70
2018-10-19T00:39:32.800Z,28.50
2018-10-19T00:40:32.778Z,28.40
2018-10-19T00:41:32.778Z,28.20
2018-10-19T00:42:32.755Z,27.30
2018-10-19T00:43:32.781Z,28.20
2018-10-19T00:44:40.136Z,28.20
2018-10-19T00:45:32.725Z,28.80
2018-10-19T00:46:32.715Z,29.20
2018-10-19T00:47:32.702Z,29.10
2018-10-19T00:48:32.700Z,28.80
2018-10-19T00:49:32.681Z,32.00
2018-10-19T00:50:32.681Z,31.60
2018-10-19T00:51:32.667Z,33.70
2018-10-19T00:52:32.657Z,35.50
2018-10-19T00:53:32.652Z,35.90
2018-10-19T00:54:32.627Z,36.10
2018-10-19T00:55:32.621Z,35.80
2018-10-19T00:56:32.616Z,36.60
2018-10-19T00:57:32.593Z,35.70
2018-10-19T00:58:32.578Z,33.30
2018-10-19T00:59:32.580Z,33.10
2018-10-19T01:00:32.563Z,33.50
2018-10-19T01:01:32.560Z,33.70
2018-10-19T01:02:32.539Z,34.70
2018-10-19T01:03:32.568Z,34.90
2018-10-19T01:04:32.520Z,36.00
2018-10-19T01:05:32.539Z,35.50
2018-10-19T01:06:32.487Z,33.90
2018-10-19T01:07:32.490Z,33.30
2018-10-19T01:08:32.469Z,35.20
2018-10-19T01:09:32.461Z,35.60
2018-10-19T01:10:32.452Z,35.90
2018-10-19T01:11:32.437Z,36.30
2018-10-19T01:12:32.430Z,36.50
2018-10-19T01:13:32.409Z,38.10
2018-10-19T01:14:32.408Z,39.40
2018-10-19T01:15:32.399Z,37.90
2018-10-19T01:16:32.400Z,39.50
2018-10-19T01:17:32.368Z,40.50
2018-10-19T01:18:32.362Z,38.60
2018-10-19T01:19:32.346Z,37.10
2018-10-19T01:20:32.341Z,37.00
2018-10-19T01:21:32.333Z,37.00
2018-10-19T01:22:32.321Z,37.20
2018-10-19T01:23:32.306Z,37.00
2018-10-19T01:24:32.285Z,36.20
2018-10-19T01:25:32.279Z,35.20
2018-10-19T01:26:39.308Z,36.60
2018-10-19T01:27:32.288Z,35.60
2018-10-19T01:28:32.249Z,36.40
2018-10-19T01:29:32.235Z,35.90
2018-10-19T01:30:32.242Z,34.80
2018-10-19T01:31:32.225Z,32.00
2018-10-19T01:32:32.196Z,33.20
2018-10-19T01:33:32.190Z,31.10
2018-10-19T01:34:32.182Z,31.90
2018-10-19T01:35:32.163Z,32.20
2018-10-19T01:36:32.152Z,31.90
2018-10-19T01:37:32.143Z,31.80
2018-10-19T01:38:32.134Z,32.10
2018-10-19T01:39:32.124Z,32.10
2018-10-19T01:40:32.125Z,31.80
2018-10-19T01:41:32.097Z,32.50
2018-10-19T01:42:32.084Z,33.80
2018-10-19T01:43:32.087Z,33.10
2018-10-19T01:44:32.068Z,31.90
2018-10-19T01:45:32.051Z,32.30
2018-10-19T01:46:32.051Z,32.80
2018-10-19T01:47:32.046Z,32.70
2018-10-19T01:48:32.018Z,32.50
2018-10-19T01:49:32.013Z,33.30
2018-10-19T01:50:31.995Z,35.00
2018-10-19T01:51:31.987Z,34.40
2018-10-19T01:52:31.973Z,34.60
2018-10-19T01:53:31.975Z,34.70
2018-10-19T01:54:31.957Z,35.00
2018-10-19T01:55:31.939Z,33.90
2018-10-19T01:56:31.929Z,34.80
2018-10-19T01:57:31.922Z,33.90
2018-10-19T01:58:31.908Z,34.50
2018-10-19T01:59:31.924Z,33.90
2018-10-19T02:00:31.895Z,35.40
2018-10-19T02:01:31.875Z,34.30
2018-10-19T02:02:31.862Z,32.00
2018-10-19T02:03:31.853Z,33.00
2018-10-19T02:04:31.844Z,32.00
2018-10-19T02:05:31.833Z,35.00
2018-10-19T02:06:31.823Z,34.70
2018-10-19T02:07:31.821Z,34.90
2018-10-19T02:08:31.804Z,38.00
2018-10-19T02:09:31.784Z,37.70
2018-10-19T02:10:31.776Z,36.30
2018-10-19T02:11:31.764Z,37.00
2018-10-19T02:12:31.753Z,37.30
2018-10-19T02:13:31.741Z,36.20
2018-10-19T02:14:31.732Z,37.20
2018-10-19T02:15:31.752Z,37.30
2018-10-19T02:16:31.707Z,36.20
2018-10-19T02:17:31.697Z,36.00
2018-10-19T02:18:31.685Z,35.60
2018-10-19T02:19:31.679Z,36.20
2018-10-19T02:20:31.662Z,36.70
2018-10-19T02:21:31.673Z,36.70
2018-10-19T02:22:31.641Z,39.10
2018-10-19T02:23:31.630Z,41.10
2018-10-19T02:24:31.622Z,38.20
2018-10-19T02:25:31.609Z,38.60
2018-10-19T02:26:31.603Z,40.40
2018-10-19T02:27:31.593Z,38.50
2018-10-19T02:28:31.581Z,38.10
2018-10-19T02:29:31.567Z,40.90
2018-10-19T02:30:31.553Z,39.50
2018-10-19T02:31:31.558Z,39.60
2018-10-19T02:32:31.531Z,44.00
2018-10-19T02:33:31.519Z,40.60
2018-10-19T02:34:31.513Z,39.00
2018-10-19T02:35:31.529Z,39.40
2018-10-19T02:36:31.487Z,39.50
2018-10-19T02:37:31.478Z,37.50
2018-10-19T02:38:31.463Z,36.90
2018-10-19T02:39:31.452Z,35.60
2018-10-19T02:40:31.441Z,34.90
2018-10-19T02:41:31.450Z,34.10
2018-10-19T02:42:31.428Z,33.00
2018-10-19T02:43:31.410Z,34.40
2018-10-19T02:44:31.398Z,33.50
2018-10-19T02:45:31.385Z,34.80
2018-10-19T02:46:31.374Z,33.30
2018-10-19T02:47:31.392Z,34.20
2018-10-19T02:48:31.365Z,33.10
2018-10-19T02:49:31.343Z,34.90
2018-10-19T02:50:31.329Z,36.30
2018-10-19T02:51:31.324Z,36.90
2018-10-19T02:52:31.309Z,36.20
2018-10-19T02:53:31.311Z,37.80
2018-10-19T02:54:31.287Z,38.70
2018-10-19T02:55:31.278Z,37.60
2018-10-19T02:56:31.262Z,38.20
2018-10-19T02:57:31.253Z,37.40
2018-10-19T02:58:31.244Z,35.00
2018-10-19T02:59:31.233Z,36.90
2018-10-19T03:00:31.218Z,36.50
2018-10-19T03:01:31.208Z,39.40
2018-10-19T03:02:31.199Z,38.80
2018-10-19T03:03:31.233Z,36.00
2018-10-19T03:04:31.173Z,39.90
2018-10-19T03:05:31.163Z,35.70
2018-10-19T03:06:31.166Z,37.30
2018-10-19T03:07:31.140Z,38.00
2018-10-19T03:08:31.132Z,36.90
2018-10-19T03:09:31.126Z,36.60
2018-10-19T03:10:31.107Z,38.00
2018-10-19T03:11:31.178Z,36.10
2018-10-19T03:12:31.090Z,35.70
2018-10-19T03:13:31.074Z,34.40
2018-10-19T03:14:31.088Z,34.10
2018-10-19T03:15:31.058Z,33.00
2018-10-19T03:16:31.040Z,33.90
2018-10-19T03:17:31.062Z,36.40
2018-10-19T03:18:31.021Z,37.70
2018-10-19T03:19:31.024Z,34.80
2018-10-19T03:20:30.996Z,35.10
2018-10-19T03:21:30.986Z,34.20
2018-10-19T03:22:30.977Z,36.50
2018-10-19T03:23:31.011Z,35.30
2018-10-19T03:24:30.951Z,35.00
2018-10-19T03:25:30.947Z,34.10
2018-10-19T03:26:30.936Z,34.60
2018-10-19T03:27:30.924Z,34.60
2018-10-19T03:28:30.910Z,34.00
2018-10-19T03:29:30.926Z,34.90
2018-10-19T03:30:30.887Z,36.00
2018-10-19T03:31:30.873Z,36.90
2018-10-19T03:32:30.861Z,38.80
2018-10-19T03:33:30.849Z,41.50
2018-10-19T03:34:30.839Z,40.40
2018-10-19T03:35:30.885Z,41.40
2018-10-19T03:36:30.817Z,38.90
2018-10-19T03:37:30.809Z,38.20
2018-10-19T03:38:30.798Z,38.60
2018-10-19T03:39:30.830Z,39.00
2018-10-19T03:40:30.793Z,37.60
2018-10-19T03:41:30.800Z,38.10
2018-10-19T03:42:30.752Z,43.30
2018-10-19T03:43:30.739Z,40.90
2018-10-19T03:44:30.729Z,39.70
2018-10-19T03:45:30.725Z,38.70
2018-10-19T03:46:30.710Z,40.70
2018-10-19T03:47:30.716Z,38.10
2018-10-19T03:48:30.684Z,40.60
2018-10-19T03:49:30.674Z,38.40
2018-10-19T03:50:30.662Z,38.10
2018-10-19T03:51:30.654Z,39.20
2018-10-19T03:52:30.640Z,36.90
2018-10-19T03:53:30.664Z,37.50
2018-10-19T03:54:30.618Z,37.80
2018-10-19T03:55:30.605Z,39.00
2018-10-19T03:56:30.614Z,39.00
2018-10-19T03:57:30.584Z,37.20
2018-10-19T03:58:30.575Z,36.40
2018-10-19T03:59:30.578Z,39.20
2018-10-19T04:00:30.552Z,38.30
2018-10-19T04:01:30.540Z,36.20
2018-10-19T04:02:30.538Z,38.20
2018-10-19T04:03:30.574Z,44.80
2018-10-19T04:04:30.507Z,43.60
2018-10-19T04:05:30.531Z,44.10
2018-10-19T04:06:30.487Z,48.90
2018-10-19T04:07:30.479Z,51.20
2018-10-19T04:08:30.463Z,48.80
2018-10-19T04:09:30.454Z,47.10
2018-10-19T04:10:30.440Z,43.90
2018-10-19T04:11:30.480Z,45.10
2018-10-19T04:12:30.448Z,43.00
2018-10-19T04:13:30.445Z,43.80
2018-10-19T04:14:30.395Z,43.40
2018-10-19T04:15:30.385Z,43.90
2018-10-19T04:16:30.381Z,41.80
2018-10-19T04:17:30.375Z,43.20
2018-10-19T04:18:30.356Z,46.20
2018-10-19T04:19:30.344Z,45.40
2018-10-19T04:20:30.328Z,43.30
2018-10-19T04:21:30.318Z,44.90
2018-10-19T04:22:30.310Z,45.10
2018-10-19T04:23:30.319Z,42.50
2018-10-19T04:24:30.288Z,48.00
2018-10-19T04:25:30.276Z,47.90
2018-10-19T04:26:30.266Z,46.30
2018-10-19T04:27:30.363Z,47.00
2018-10-19T04:28:30.258Z,46.60
2018-10-19T04:29:30.243Z,47.20
2018-10-19T04:30:30.218Z,47.80
2018-10-19T04:31:30.207Z,51.80
2018-10-19T04:32:30.213Z,50.70
2018-10-19T04:33:30.200Z,49.20
2018-10-19T04:34:30.182Z,50.80
2018-10-19T04:35:30.207Z,49.00
2018-10-19T04:36:30.154Z,48.00
2018-10-19T04:37:30.142Z,56.10
2018-10-19T04:38:30.134Z,57.70
2018-10-19T04:39:30.126Z,53.40
2018-10-19T04:40:30.107Z,54.30
2018-10-19T04:41:30.173Z,55.80
2018-10-19T04:42:30.085Z,60.70
2018-10-19T04:43:30.075Z,62.90
2018-10-19T04:44:30.071Z,71.20
2018-10-19T04:45:30.052Z,65.80
2018-10-19T04:46:30.043Z,60.00
2018-10-19T04:47:30.101Z,58.20
2018-10-19T04:48:30.032Z,62.30
2018-10-19T04:49:30.026Z,58.10
2018-10-19T04:50:29.999Z,59.40
2018-10-19T04:51:29.987Z,62.50
2018-10-19T04:52:29.981Z,63.90
2018-10-19T04:53:30.015Z,60.90
2018-10-19T04:54:29.960Z,59.80
2018-10-19T04:55:29.948Z,57.60
2018-10-19T04:56:29.936Z,60.40
2018-10-19T04:57:29.921Z,62.60
2018-10-19T04:58:29.908Z,60.00
2018-10-19T04:59:29.932Z,56.70
2018-10-19T05:00:29.890Z,61.90
2018-10-19T05:01:29.874Z,57.30
2018-10-19T05:02:29.917Z,59.10
2018-10-19T05:03:29.852Z,56.50
2018-10-19T05:04:29.862Z,55.70
2018-10-19T05:05:29.932Z,55.50
2018-10-19T05:06:29.866Z,52.50
2018-10-19T05:07:29.837Z,52.60
2018-10-19T05:08:29.841Z,55.70
2018-10-19T05:09:29.819Z,53.70
2018-10-19T05:10:29.795Z,53.90
2018-10-19T05:11:29.778Z,50.10
2018-10-19T05:12:29.851Z,50.40
2018-10-19T05:13:30.689Z,49.60
2018-10-19T05:14:29.772Z,51.90
2018-10-19T05:15:29.720Z,49.70
2018-10-19T05:16:29.753Z,49.30
2018-10-19T05:17:29.720Z,50.00
2018-10-19T05:18:29.715Z,50.60
2018-10-19T05:19:29.695Z,51.00
2018-10-19T05:20:29.726Z,49.50
2018-10-19T05:21:29.691Z,52.30
2018-10-19T05:22:29.642Z,53.30
2018-10-19T05:23:29.633Z,55.50
2018-10-19T05:24:29.671Z,51.20
2018-10-19T05:25:29.611Z,51.50
2018-10-19T05:26:29.597Z,50.80
2018-10-19T05:27:29.597Z,53.20
2018-10-19T05:28:29.574Z,54.20
2018-10-19T05:29:29.568Z,52.60
2018-10-19T05:30:29.551Z,53.50
2018-10-19T05:31:29.541Z,56.50
2018-10-19T05:32:29.545Z,57.30
2018-10-19T05:33:29.521Z,57.00
2018-10-19T05:34:29.508Z,54.90
2018-10-19T05:35:29.496Z,54.70
2018-10-19T05:36:29.486Z,53.20
2018-10-19T05:37:29.504Z,52.00
2018-10-19T05:38:37.040Z,53.20
2018-10-19T05:39:29.455Z,54.20
2018-10-19T05:40:29.443Z,52.00
2018-10-19T05:41:29.431Z,54.00
2018-10-19T05:42:29.422Z,49.10
2018-10-19T05:43:29.492Z,47.80
2018-10-19T05:44:29.406Z,48.20
2018-10-19T05:45:29.393Z,46.50
2018-10-19T05:46:29.383Z,44.60
2018-10-19T05:47:29.371Z,44.80
2018-10-19T05:48:29.373Z,45.80
2018-10-19T05:49:29.348Z,46.10
2018-10-19T05:50:29.337Z,44.80
2018-10-19T05:51:29.321Z,45.50
2018-10-19T05:52:29.324Z,46.50
2018-10-19T05:53:29.339Z,48.30
2018-10-19T05:54:29.294Z,48.40
2018-10-19T05:55:29.275Z,47.70
2018-10-19T05:56:29.281Z,47.30
2018-10-19T05:57:29.260Z,46.40
2018-10-19T05:58:29.251Z,46.70
2018-10-19T05:59:29.243Z,45.60
2018-10-19T06:00:29.240Z,46.70
2018-10-19T06:01:29.247Z,46.20
2018-10-19T06:02:29.398Z,45.30
2018-10-19T06:03:29.227Z,44.70
2018-10-19T06:04:29.211Z,44.20
2018-10-19T06:05:29.176Z,45.60
2018-10-19T06:06:29.161Z,46.80
2018-10-19T06:07:29.158Z,46.10
2018-10-19T06:08:29.144Z,49.60
2018-10-19T06:09:29.138Z,50.50
2018-10-19T06:10:29.110Z,49.80
2018-10-19T06:11:29.103Z,47.50
2018-10-19T06:12:29.095Z,49.00
2018-10-19T06:13:29.118Z,49.30
2018-10-19T06:14:29.087Z,50.90
2018-10-19T06:15:29.063Z,52.00
2018-10-19T06:16:29.067Z,54.10
2018-10-19T06:17:29.050Z,56.60
2018-10-19T06:18:29.034Z,55.60
2018-10-19T06:19:29.013Z,57.10
2018-10-19T06:20:29.012Z,58.20
2018-10-19T06:21:28.997Z,59.80
2018-10-19T06:22:28.978Z,61.80
2018-10-19T06:23:28.970Z,63.70
2018-10-19T06:24:28.980Z,64.70
2018-10-19T06:25:28.942Z,63.50
2018-10-19T06:26:28.993Z,64.80
2018-10-19T06:27:28.921Z,64.90
2018-10-19T06:28:28.918Z,65.60
2018-10-19T06:29:28.909Z,69.60
2018-10-19T06:30:28.888Z,74.40
2018-10-19T06:31:28.875Z,75.70
2018-10-19T06:32:28.874Z,71.10
2018-10-19T06:33:28.891Z,69.70
2018-10-19T06:34:28.851Z,72.90
2018-10-19T06:35:28.836Z,66.10
2018-10-19T06:36:28.818Z,66.80
2018-10-19T06:37:28.816Z,68.30
2018-10-19T06:38:28.808Z,71.60
2018-10-19T06:39:28.803Z,71.70
2018-10-19T06:40:28.779Z,74.50
2018-10-19T06:41:28.768Z,66.20
2018-10-19T06:42:28.754Z,65.20
2018-10-19T06:43:28.756Z,62.60
2018-10-19T06:44:28.736Z,64.90
2018-10-19T06:45:28.736Z,60.20
2018-10-19T06:46:28.727Z,55.90
2018-10-19T06:47:28.733Z,55.00
2018-10-19T06:48:28.688Z,57.20
2018-10-19T06:49:28.697Z,57.30
2018-10-19T06:50:28.678Z,57.00
2018-10-19T06:51:28.651Z,57.80
2018-10-19T06:52:28.643Z,59.00
2018-10-19T06:53:28.634Z,58.30
2018-10-19T06:54:37.189Z,58.20
2018-10-19T06:55:35.655Z,60.00
2018-10-19T06:56:36.698Z,63.00
2018-10-19T06:57:28.592Z,61.70
2018-10-19T06:58:28.578Z,61.80
2018-10-19T06:59:28.644Z,60.00
2018-10-19T07:00:28.577Z,59.90
2018-10-19T07:01:28.558Z,56.30
2018-10-19T07:02:28.533Z,61.30
2018-10-19T07:03:28.524Z,59.00
2018-10-19T07:04:28.513Z,63.10
2018-10-19T07:05:28.544Z,66.60
2018-10-19T07:06:28.523Z,64.90
2018-10-19T07:07:28.492Z,67.70
2018-10-19T07:08:28.591Z,74.80
2018-10-19T07:09:28.461Z,82.30
2018-10-19T07:10:28.460Z,83.00
2018-10-19T07:11:28.437Z,83.80
2018-10-19T07:12:28.436Z,79.70
2018-10-19T07:13:28.464Z,81.40
2018-10-19T07:14:28.402Z,80.90
2018-10-19T07:15:28.385Z,79.40
2018-10-19T07:16:28.404Z,85.90
2018-10-19T07:17:28.398Z,83.50
2018-10-19T07:18:28.351Z,82.30
2018-10-19T07:19:28.353Z,86.90
2018-10-19T07:20:28.338Z,86.10
2018-10-19T07:21:28.367Z,78.30
2018-10-19T07:22:28.361Z,81.60
2018-10-19T07:23:28.333Z,78.20
2018-10-19T07:24:28.389Z,76.40
2018-10-19T07:25:28.307Z,73.90
2018-10-19T07:26:28.274Z,72.70
2018-10-19T07:27:28.263Z,81.90
2018-10-19T07:28:28.286Z,84.80
2018-10-19T07:29:28.284Z,86.50
2018-10-19T07:30:28.229Z,80.80
2018-10-19T07:31:28.291Z,91.30
2018-10-19T07:32:28.219Z,86.80
2018-10-19T07:33:28.220Z,85.10
2018-10-19T07:34:28.210Z,83.10
2018-10-19T07:35:28.185Z,78.40
2018-10-19T07:36:28.357Z,84.10
2018-10-19T07:37:28.153Z,82.90
2018-10-19T07:38:28.147Z,86.30
2018-10-19T07:39:28.128Z,87.20
2018-10-19T07:40:35.467Z,82.00
2018-10-19T07:41:28.122Z,91.10
2018-10-19T07:42:28.151Z,87.50
2018-10-19T07:43:28.079Z,81.10
2018-10-19T07:44:28.064Z,85.60
2018-10-19T07:45:28.052Z,86.00
2018-10-19T07:46:28.042Z,85.20
2018-10-19T07:47:28.158Z,89.00
2018-10-19T07:48:28.076Z,97.90
2018-10-19T07:49:28.028Z,87.70
2018-10-19T07:50:27.997Z,95.20
2018-10-19T07:51:27.985Z,94.80
2018-10-19T07:52:27.973Z,88.60
2018-10-19T07:53:27.966Z,92.00
2018-10-19T07:54:28.033Z,88.60
2018-10-19T07:55:27.944Z,83.40
2018-10-19T07:56:27.937Z,95.30
2018-10-19T07:57:27.920Z,95.40
2018-10-19T07:58:27.910Z,91.90
2018-10-19T07:59:27.912Z,92.50
2018-10-19T08:00:27.923Z,95.60
2018-10-19T08:01:27.875Z,98.10
2018-10-19T08:02:27.861Z,102.70
2018-10-19T08:03:27.865Z,104.00
2018-10-19T08:04:27.845Z,99.20
2018-10-19T08:05:27.856Z,95.00
2018-10-19T08:06:27.818Z,97.60
2018-10-19T08:07:27.816Z,100.60
2018-10-19T08:08:27.800Z,99.00
2018-10-19T08:09:27.798Z,95.00
2018-10-19T08:10:27.812Z,98.50
2018-10-19T08:11:27.794Z,97.10
2018-10-19T08:12:27.757Z,98.70
2018-10-19T08:13:27.741Z,94.70
2018-10-19T08:14:27.732Z,96.80
2018-10-19T08:15:27.743Z,97.00
2018-10-19T08:16:27.727Z,97.80
2018-10-19T08:17:27.701Z,97.50
2018-10-19T08:18:27.694Z,93.30
2018-10-19T08:19:27.676Z,93.80
2018-10-19T08:20:34.752Z,92.60
2018-10-19T08:21:27.674Z,89.80
2018-10-19T08:22:27.640Z,87.30
2018-10-19T08:23:27.628Z,86.90
2018-10-19T08:24:27.619Z,84.80
2018-10-19T08:25:27.609Z,84.80
2018-10-19T08:26:27.640Z,85.20
2018-10-19T08:27:27.615Z,82.90
2018-10-19T08:28:27.606Z,81.20
2018-10-19T08:29:27.564Z,87.30
2018-10-19T08:30:27.551Z,84.20
2018-10-19T08:31:27.543Z,84.50
2018-10-19T08:32:27.543Z,81.80
2018-10-19T08:33:27.519Z,81.70
2018-10-19T08:34:27.511Z,82.80
2018-10-19T08:35:27.498Z,83.00
2018-10-19T08:36:27.544Z,80.40
2018-10-19T08:37:27.551Z,82.40
2018-10-19T08:38:34.584Z,82.00
2018-10-19T08:39:27.495Z,86.40
2018-10-19T08:40:27.489Z,81.20
2018-10-19T08:41:27.528Z,82.00
2018-10-19T08:42:27.439Z,82.70
2018-10-19T08:43:27.408Z,79.10
2018-10-19T08:44:27.394Z,84.60
2018-10-19T08:45:27.389Z,82.20
2018-10-19T08:46:27.377Z,81.10
2018-10-19T08:47:27.386Z,82.70
2018-10-19T08:48:27.354Z,81.60
2018-10-19T08:49:27.338Z,81.70
2018-10-19T08:50:27.327Z,81.70
2018-10-19T08:51:27.455Z,81.80
2018-10-19T08:52:34.342Z,83.00
2018-10-19T08:53:27.333Z,85.00
2018-10-19T08:54:27.288Z,81.90
2018-10-19T08:55:27.315Z,83.20
2018-10-19T08:56:27.259Z,81.60
2018-10-19T08:57:27.249Z,84.10
2018-10-19T08:58:27.447Z,83.70
2018-10-19T08:59:27.263Z,86.20
2018-10-19T09:00:34.260Z,84.20
2018-10-19T09:01:27.209Z,86.60
2018-10-19T09:02:34.483Z,85.00
2018-10-19T09:03:27.236Z,86.90
2018-10-19T09:04:27.185Z,87.10
2018-10-19T09:05:27.172Z,85.90
2018-10-19T09:06:27.150Z,86.70
2018-10-19T09:07:27.143Z,87.40
2018-10-19T09:08:27.129Z,87.50
2018-10-19T09:09:27.121Z,88.00
2018-10-19T09:10:27.129Z,83.40
2018-10-19T09:11:27.154Z,86.80
2018-10-19T09:12:27.152Z,85.10
2018-10-19T09:13:27.091Z,87.10
2018-10-19T09:14:35.031Z,88.90
2018-10-19T09:15:27.997Z,88.50
2018-10-19T09:16:27.034Z,83.00
2018-10-19T09:17:27.026Z,82.20
2018-10-19T09:18:27.058Z,80.90
2018-10-19T09:19:27.007Z,82.20
2018-10-19T09:20:26.992Z,84.10
2018-10-19T09:21:27.049Z,84.30
2018-10-19T09:22:26.967Z,81.00
2018-10-19T09:23:27.013Z,78.70
2018-10-19T09:24:26.960Z,82.80
2018-10-19T09:25:27.030Z,84.00
2018-10-19T09:26:26.922Z,85.50
2018-10-19T09:27:26.920Z,83.50
2018-10-19T09:28:26.900Z,83.60
2018-10-19T09:29:26.921Z,83.20
2018-10-19T09:30:34.094Z,83.50
2018-10-19T09:31:26.871Z,87.10
2018-10-19T09:32:26.859Z,84.70
2018-10-19T09:33:26.848Z,83.40
2018-10-19T09:34:26.837Z,82.40
2018-10-19T09:35:26.866Z,82.60
2018-10-19T09:36:27.028Z,84.20
2018-10-19T09:37:26.801Z,82.90
2018-10-19T09:38:26.833Z,83.00
2018-10-19T09:39:26.777Z,81.90
2018-10-19T09:40:26.766Z,81.20
2018-10-19T09:41:26.880Z,80.40
2018-10-19T09:42:26.743Z,80.40
2018-10-19T09:43:26.751Z,81.50
2018-10-19T09:44:26.724Z,79.80
2018-10-19T09:45:26.708Z,81.00
2018-10-19T09:46:26.699Z,81.00
2018-10-19T09:47:33.772Z,81.20
2018-10-19T09:48:26.674Z,82.60
2018-10-19T09:49:26.698Z,79.90
2018-10-19T09:50:26.733Z,81.70
2018-10-19T09:51:33.694Z,80.40
2018-10-19T09:52:26.631Z,79.30
2018-10-19T09:53:26.627Z,80.70
2018-10-19T09:54:26.615Z,80.00
2018-10-19T09:55:26.626Z,81.10
2018-10-19T09:56:26.592Z,81.80
2018-10-19T09:57:26.574Z,84.10
2018-10-19T09:58:26.564Z,79.20
2018-10-19T09:59:26.558Z,78.80
2018-10-19T10:00:26.549Z,84.10
2018-10-19T10:01:26.544Z,80.50
2018-10-19T10:02:26.531Z,79.60
2018-10-19T10:03:26.512Z,78.50
2018-10-19T10:04:26.497Z,80.30
2018-10-19T10:05:26.497Z,79.60
2018-10-19T10:06:26.485Z,78.80
2018-10-19T10:07:26.462Z,80.50
2018-10-19T10:08:26.465Z,76.90
2018-10-19T10:09:26.445Z,77.60
2018-10-19T10:10:26.428Z,74.30
2018-10-19T10:11:26.465Z,77.00
2018-10-19T10:12:26.408Z,78.80
2018-10-19T10:13:26.395Z,75.60
2018-10-19T10:14:26.398Z,75.30
2018-10-19T10:15:26.502Z,75.40
2018-10-19T10:16:26.363Z,74.50
2018-10-19T10:17:26.358Z,73.00
2018-10-19T10:18:26.344Z,74.90
2018-10-19T10:19:26.327Z,73.90
2018-10-19T10:20:26.322Z,74.30
2018-10-19T10:21:26.314Z,75.70
2018-10-19T10:22:26.314Z,74.90
2018-10-19T10:23:26.285Z,72.40
2018-10-19T10:24:26.273Z,75.10
2018-10-19T10:25:26.265Z,74.40
2018-10-19T10:26:26.250Z,74.40
2018-10-19T10:27:26.259Z,74.80
2018-10-19T10:28:26.226Z,75.10
2018-10-19T10:29:26.218Z,72.20
2018-10-19T10:30:26.207Z,74.10
2018-10-19T10:31:26.198Z,71.90
2018-10-19T10:32:26.276Z,72.50
2018-10-19T10:33:26.182Z,71.70
2018-10-19T10:34:26.165Z,72.40
2018-10-19T10:35:26.149Z,71.20
2018-10-19T10:36:26.139Z,70.80
2018-10-19T10:37:26.135Z,72.50
2018-10-19T10:38:26.128Z,73.60
2018-10-19T10:39:26.112Z,73.80
2018-10-19T10:40:26.093Z,72.00
2018-10-19T10:41:26.084Z,74.50
2018-10-19T10:42:26.084Z,70.70
2018-10-19T10:43:26.097Z,71.90
2018-10-19T10:44:34.398Z,71.00
2018-10-19T10:45:26.038Z,76.70
2018-10-19T10:46:26.043Z,73.10
2018-10-19T10:47:26.018Z,74.20
2018-10-19T10:48:26.029Z,75.90
2018-10-19T10:49:25.995Z,73.90
2018-10-19T10:50:26.040Z,72.00
2018-10-19T10:51:25.969Z,73.10
2018-10-19T10:52:25.961Z,72.50
2018-10-19T10:53:26.018Z,73.50
2018-10-19T10:54:25.940Z,73.10
2018-10-19T10:55:25.925Z,73.00
2018-10-19T10:56:25.915Z,72.90
2018-10-19T10:57:25.908Z,75.00
2018-10-19T10:58:25.913Z,71.70
2018-10-19T10:59:25.896Z,71.90
2018-10-19T11:00:25.868Z,72.80
2018-10-19T11:01:25.860Z,74.40
2018-10-19T11:02:25.849Z,73.30
2018-10-19T11:03:25.835Z,73.90
2018-10-19T11:04:25.844Z,72.70
2018-10-19T11:05:25.819Z,70.40
2018-10-19T11:06:25.805Z,70.20
2018-10-19T11:07:25.868Z,70.40
2018-10-19T11:08:25.783Z,68.10
2018-10-19T11:09:25.769Z,70.90
2018-10-19T11:10:25.763Z,70.00
2018-10-19T11:11:25.747Z,73.40
2018-10-19T11:12:25.739Z,72.20
2018-10-19T11:13:25.726Z,72.00
2018-10-19T11:14:25.743Z,72.50
2018-10-19T11:15:25.730Z,73.10
2018-10-19T11:16:25.696Z,67.80
2018-10-19T11:17:25.744Z,69.80
2018-10-19T11:18:25.686Z,70.30
2018-10-19T11:19:25.705Z,70.20
2018-10-19T11:20:25.645Z,68.30
2018-10-19T11:21:25.638Z,68.40
2018-10-19T11:22:25.708Z,68.60
2018-10-19T11:23:25.613Z,69.00
2018-10-19T11:24:25.605Z,69.80
2018-10-19T11:25:25.591Z,69.50
2018-10-19T11:26:25.586Z,68.10
2018-10-19T11:27:25.568Z,71.10
2018-10-19T11:28:25.585Z,69.00
2018-10-19T11:29:25.545Z,69.10
2018-10-19T11:30:25.572Z,67.70
2018-10-19T11:31:25.543Z,67.30
2018-10-19T11:32:25.514Z,67.90
2018-10-19T11:33:25.509Z,66.50
2018-10-19T11:34:25.568Z,65.70
2018-10-19T11:35:25.480Z,64.50
2018-10-19T11:36:25.532Z,65.60
2018-10-19T11:37:25.552Z,65.10
2018-10-19T11:38:25.463Z,64.00
2018-10-19T11:39:25.541Z,64.10
2018-10-19T11:40:25.446Z,63.40
2018-10-19T11:41:25.415Z,63.60
2018-10-19T11:42:25.403Z,62.10
2018-10-19T11:43:25.391Z,63.90
2018-10-19T11:44:25.386Z,64.60
2018-10-19T11:45:25.532Z,63.50
2018-10-19T11:46:25.356Z,64.90
2018-10-19T11:47:25.343Z,62.40
2018-10-19T11:48:25.559Z,62.40
2018-10-19T11:49:25.340Z,63.10
2018-10-19T11:50:25.321Z,61.60
2018-10-19T11:51:25.318Z,62.70
2018-10-19T11:52:25.288Z,62.80
2018-10-19T11:53:25.276Z,65.20
2018-10-19T11:54:25.269Z,62.40
2018-10-19T11:55:25.264Z,65.10
2018-10-19T11:56:25.310Z,68.00
2018-10-19T11:57:25.232Z,66.10
2018-10-19T11:58:25.286Z,65.70
2018-10-19T11:59:25.210Z,66.40
2018-10-19T12:00:25.212Z,67.10
2018-10-19T12:01:25.227Z,65.10
2018-10-19T12:02:25.178Z,65.40
2018-10-19T12:03:25.218Z,65.70
2018-10-19T12:04:25.154Z,65.60
2018-10-19T12:05:25.145Z,64.00
2018-10-19T12:06:25.138Z,65.50
2018-10-19T12:07:25.165Z,66.30
2018-10-19T12:08:25.135Z,66.40
2018-10-19T12:09:25.102Z,66.40
2018-10-19T12:10:25.089Z,64.30
2018-10-19T12:11:25.086Z,66.40
2018-10-19T12:12:25.071Z,65.00
2018-10-19T12:13:25.090Z,66.40
2018-10-19T12:14:25.043Z,63.70
2018-10-19T12:15:25.034Z,63.90
2018-10-19T12:16:25.478Z,63.00
2018-10-19T12:17:25.023Z,63.40
2018-10-19T12:18:25.000Z,63.00
2018-10-19T12:19:25.091Z,63.70
2018-10-19T12:20:25.009Z,61.70
2018-10-19T12:21:25.032Z,63.70
2018-10-19T12:22:25.000Z,65.10
2018-10-19T12:23:24.945Z,66.90
2018-10-19T12:24:24.957Z,64.20
2018-10-19T12:25:24.928Z,63.20
2018-10-19T12:26:24.910Z,64.70
2018-10-19T12:27:25.022Z,69.20
2018-10-19T12:28:24.889Z,66.80
2018-10-19T12:29:24.923Z,68.30
2018-10-19T12:30:24.863Z,69.00
2018-10-19T12:31:24.869Z,69.40
2018-10-19T12:32:24.905Z,67.30
2018-10-19T12:33:24.863Z,65.70
2018-10-19T12:34:24.838Z,66.40
2018-10-19T12:35:24.862Z,65.20
2018-10-19T12:36:24.807Z,65.10
2018-10-19T12:37:24.791Z,65.80
2018-10-19T12:38:24.781Z,66.00
2018-10-19T12:39:24.895Z,67.10
2018-10-19T12:40:24.756Z,66.60
2018-10-19T12:41:24.746Z,66.10
2018-10-19T12:42:24.790Z,65.90
2018-10-19T12:43:24.723Z,66.20
2018-10-19T12:44:24.708Z,66.30
2018-10-19T12:45:24.699Z,65.00
2018-10-19T12:46:24.685Z,62.90
2018-10-19T12:47:24.783Z,65.40
2018-10-19T12:48:24.767Z,62.10
2018-10-19T12:49:24.666Z,64.80
2018-10-19T12:50:24.705Z,63.60
2018-10-19T12:51:24.630Z,64.80
2018-10-19T12:52:24.643Z,63.10